Time;durP1;ratioP1;P1;durP2;ratioP2;P2;SDS_P1;SDS_P2;PMS_P1;PMS_P2;Temp;Humidity;BMP_temperature;BMP_pressure;BME280_temperature;BME280_humidity;BME280_pressure;Samples;Min_cycle;Max_cycle;Signal;HPM_P1;HPM_P2
2022/03/20 00:00:09;;;;;;;8.77;4.07;;;;;;;20.07;19.78;101732.66;5110430;28;20024;-74
2022/03/20 00:02:35;;;;;;;5.50;4.80;;;;;;;20.06;19.71;101730.09;5109932;28;20132;-71
2022/03/20 00:05:02;;;;;;;7.40;4.85;;;;;;;20.06;19.87;101733.66;5108741;28;20175;-70
2022/03/20 00:07:29;;;;;;;6.95;4.63;;;;;;;20.05;19.61;101725.69;5098714;28;20043;-71
2022/03/20 00:09:54;;;;;;;8.60;4.32;;;;;;;20.06;19.80;101728.28;5090082;28;20103;-70
2022/03/20 00:12:20;;;;;;;7.35;4.72;;;;;;;20.04;19.79;101721.31;5094544;28;20027;-72
2022/03/20 00:14:45;;;;;;;6.22;4.93;;;;;;;20.05;19.71;101731.94;5110268;28;20020;-73
2022/03/20 00:17:13;;;;;;;7.35;4.40;;;;;;;20.05;19.76;101729.25;5109136;28;20020;-73
2022/03/20 00:19:39;;;;;;;6.13;3.95;;;;;;;20.04;19.85;101721.31;5109148;28;20085;-76
2022/03/20 00:22:04;;;;;;;6.78;4.47;;;;;;;20.06;20.00;101727.41;5109961;28;20136;-73
2022/03/20 00:24:30;;;;;;;5.78;4.25;;;;;;;20.06;19.99;101722.91;5109715;28;20032;-73
2022/03/20 00:26:58;;;;;;;8.20;4.82;;;;;;;20.05;19.91;101720.31;5109272;28;20034;-72
2022/03/20 00:29:28;;;;;;;7.20;4.38;;;;;;;20.05;19.79;101723.88;5109672;28;20260;-73
2022/03/20 00:31:53;;;;;;;6.25;4.65;;;;;;;20.05;20.08;101723.00;5109622;28;20020;-71
2022/03/20 00:34:19;;;;;;;6.90;4.38;;;;;;;20.04;20.06;101708.75;5108487;28;20043;-74
2022/03/20 00:36:45;;;;;;;8.20;5.25;;;;;;;20.07;20.23;101718.38;5109096;28;20030;-73
2022/03/20 00:39:10;;;;;;;6.55;5.05;;;;;;;20.03;20.09;101706.16;5109684;28;20039;-71
2022/03/20 00:41:36;;;;;;;7.35;4.93;;;;;;;20.03;20.18;101706.16;5107305;28;20225;-74
2022/03/20 00:44:01;;;;;;;6.63;4.63;;;;;;;20.07;20.15;101708.47;5109457;28;20034;-73
2022/03/20 00:46:27;;;;;;;7.20;4.32;;;;;;;20.06;19.90;101704.09;5109642;28;20047;-79
2022/03/20 00:48:53;;;;;;;7.57;4.55;;;;;;;20.10;20.00;101699.31;5109585;28;20016;-77
2022/03/20 00:51:19;;;;;;;7.28;5.00;;;;;;;20.11;19.90;101706.38;5107676;28;20028;-76
2022/03/20 00:53:44;;;;;;;11.00;5.32;;;;;;;19.99;20.23;101708.25;5105545;28;20047;-74
2022/03/20 00:56:10;;;;;;;8.10;5.55;;;;;;;19.47;20.43;101711.63;5108230;28;20088;-74
2022/03/20 00:58:35;;;;;;;13.23;5.97;;;;;;;18.80;20.89;101710.66;5109395;28;20076;-75
2022/03/20 01:01:02;;;;;;;12.15;4.78;;;;;;;18.24;21.31;101714.97;5108968;28;20087;-77
2022/03/20 01:03:28;;;;;;;8.98;5.90;;;;;;;17.80;21.79;101711.97;5109070;28;20081;-75
2022/03/20 01:05:54;;;;;;;6.85;4.88;;;;;;;17.45;21.70;101703.88;5086908;28;20241;-74
2022/03/20 01:08:20;;;;;;;14.10;7.00;;;;;;;17.17;22.08;101704.09;5100209;28;20024;-75
2022/03/20 01:10:45;;;;;;;14.95;6.75;;;;;;;17.00;22.19;101702.59;5090053;28;20020;-74
2022/03/20 01:13:11;;;;;;;14.43;6.35;;;;;;;16.84;22.49;101702.81;5098240;28;20044;-75
2022/03/20 01:15:37;;;;;;;11.73;5.72;;;;;;;16.65;22.47;101702.41;5088546;28;20036;-75
2022/03/20 01:18:02;;;;;;;9.32;5.55;;;;;;;16.52;22.48;101703.25;5089510;28;20214;-75
2022/03/20 01:20:28;;;;;;;7.93;5.55;;;;;;;16.35;22.11;101701.75;5089524;28;20032;-74
2022/03/20 01:22:53;;;;;;;10.20;5.32;;;;;;;16.19;22.37;101706.44;5092456;28;20020;-75
2022/03/20 01:25:19;;;;;;;9.85;5.55;;;;;;;16.02;22.41;101703.97;5098336;28;20028;-74
2022/03/20 01:27:44;;;;;;;11.68;5.93;;;;;;;15.94;22.86;101711.63;5094454;28;20024;-73
2022/03/20 01:30:10;;;;;;;9.27;5.57;;;;;;;15.84;22.59;101702.50;5088275;28;20036;-73
2022/03/20 01:32:36;;;;;;;13.70;6.35;;;;;;;15.76;22.88;101703.00;5089117;28;20099;-74
2022/03/20 01:35:02;;;;;;;8.93;5.85;;;;;;;15.67;22.67;101703.59;5088289;28;20176;-74
2022/03/20 01:37:27;;;;;;;9.55;5.72;;;;;;;15.65;22.95;101703.69;5093124;28;20028;-74
2022/03/20 01:39:54;;;;;;;9.43;5.65;;;;;;;15.60;22.86;101699.63;5093961;28;20052;-75
2022/03/20 01:42:21;;;;;;;12.25;7.32;;;;;;;15.48;22.83;101695.94;5087984;28;20028;-74
2022/03/20 01:44:47;;;;;;;9.23;5.70;;;;;;;15.38;23.29;101693.00;5088071;28;20027;-73
2022/03/20 01:47:12;;;;;;;8.20;5.90;;;;;;;15.29;23.32;101693.59;5095682;28;20020;-74
2022/03/20 01:49:38;;;;;;;8.88;5.65;;;;;;;15.22;23.27;101699.31;5088037;28;20039;-75
2022/03/20 01:52:10;;;;;;;8.52;5.95;;;;;;;15.20;23.08;101693.25;5102679;28;20221;-76
2022/03/20 01:54:36;;;;;;;8.82;6.72;;;;;;;15.17;23.01;101689.91;5087944;28;20020;-73
2022/03/20 01:57:02;;;;;;;7.97;5.57;;;;;;;15.04;23.40;101685.34;5090094;28;20020;-74
2022/03/20 01:59:28;;;;;;;15.55;6.30;;;;;;;14.95;23.65;101686.78;5092847;28;20036;-74
2022/03/20 02:01:53;;;;;;;18.35;6.85;;;;;;;14.88;23.85;101677.47;5092072;28;20024;-74
2022/03/20 02:04:19;;;;;;;10.07;6.40;;;;;;;14.86;23.55;101678.50;5087676;28;20096;-74
2022/03/20 02:06:45;;;;;;;9.18;7.13;;;;;;;14.83;23.53;101679.56;5089971;28;20032;-74
2022/03/20 02:09:11;;;;;;;8.55;6.68;;;;;;;14.80;23.64;101671.75;5092351;28;20028;-74
2022/03/20 02:11:37;;;;;;;9.10;6.05;;;;;;;14.73;23.62;101668.63;5092819;28;20035;-74
2022/03/20 02:14:04;;;;;;;11.68;6.03;;;;;;;14.69;23.83;101668.91;5087560;28;20020;-74
2022/03/20 02:16:30;;;;;;;11.77;6.38;;;;;;;14.65;23.79;101663.75;5088194;28;20035;-75
2022/03/20 02:18:55;;;;;;;15.25;6.47;;;;;;;14.59;23.89;101658.81;5106483;28;20091;-75
2022/03/20 02:21:54;;;;;;;9.73;5.80;;;;;;;14.54;23.89;101658.22;5089024;28;20031;-76
2022/03/20 02:24:40;;;;;;;12.73;6.55;;;;;;;14.50;24.05;101654.03;5057655;28;20115;-75
2022/03/20 02:27:24;;;;;;;12.82;6.75;;;;;;;14.48;24.08;101658.63;5087455;28;20029;-75
2022/03/20 02:29:58;;;;;;;10.35;6.63;;;;;;;14.39;24.22;101651.16;5087298;28;20149;-76
2022/03/20 02:32:28;;;;;;;10.77;6.72;;;;;;;14.32;24.24;101651.56;5090812;28;20187;-75
2022/03/20 02:35:01;;;;;;;12.25;6.05;;;;;;;14.25;24.31;101652.03;5087476;28;20020;-75
2022/03/20 02:37:28;;;;;;;9.98;6.45;;;;;;;14.15;24.39;101651.72;5087397;28;20252;-75
2022/03/20 02:40:04;;;;;;;11.05;6.20;;;;;;;14.09;24.57;101652.06;5091170;28;20032;-76
2022/03/20 02:42:30;;;;;;;10.15;6.95;;;;;;;14.02;24.89;101655.13;5090837;28;20020;-75
2022/03/20 02:45:03;;;;;;;10.85;6.50;;;;;;;13.97;24.96;101641.22;5092166;28;20016;-76
2022/03/20 02:47:30;;;;;;;9.15;6.38;;;;;;;13.97;24.51;101659.84;5100178;28;20028;-74
2022/03/20 02:50:05;;;;;;;12.02;6.75;;;;;;;13.90;24.90;101642.50;5089953;28;20012;-75
2022/03/20 02:52:51;;;;;;;11.75;6.97;;;;;;;13.88;24.83;101645.28;5087071;28;20226;-75
2022/03/20 02:55:28;;;;;;;8.75;5.97;;;;;;;13.85;25.17;101649.94;5087229;28;20210;-74
2022/03/20 02:57:57;;;;;;;14.23;6.60;;;;;;;13.91;24.75;101651.38;5089124;28;20248;-76
2022/03/20 03:00:26;;;;;;;8.93;6.30;;;;;;;13.89;24.94;101647.00;5093799;28;20083;-75
2022/03/20 03:02:54;;;;;;;11.68;6.60;;;;;;;13.86;25.23;101631.19;5087097;28;20236;-75
2022/03/20 03:05:21;;;;;;;11.38;6.85;;;;;;;13.89;24.75;101641.66;5089431;28;20024;-75
2022/03/20 03:13:19;;;;;;;9.10;7.25;;;;;;;13.85;24.92;101634.81;5091050;28;20019;-74
2022/03/20 03:15:45;;;;;;;11.10;6.82;;;;;;;13.86;25.18;101641.00;5094133;28;20016;-74
2022/03/20 03:18:11;;;;;;;11.30;6.93;;;;;;;13.82;25.35;101636.81;5093488;28;20024;-74
2022/03/20 03:20:37;;;;;;;8.95;6.47;;;;;;;13.79;24.97;101640.50;5090908;28;20043;-74
2022/03/20 03:23:03;;;;;;;11.32;6.47;;;;;;;13.80;25.33;101636.91;5090702;28;20007;-75
2022/03/20 03:25:31;;;;;;;10.32;6.65;;;;;;;13.72;25.51;101644.47;5090770;28;20057;-74
2022/03/20 03:27:57;;;;;;;13.77;6.10;;;;;;;13.66;25.38;101634.19;5092510;28;20016;-75
2022/03/20 03:30:23;;;;;;;10.63;6.57;;;;;;;13.62;25.14;101633.50;5093969;28;20043;-72
2022/03/20 03:32:48;;;;;;;9.73;6.50;;;;;;;13.63;25.54;101640.53;5090436;28;20121;-74
2022/03/20 03:38:00;;;;;;;9.25;6.53;;;;;;;13.54;25.70;101635.75;5099908;28;20039;-73
2022/03/20 03:40:26;;;;;;;9.55;5.65;;;;;;;13.50;26.01;101644.84;5105596;28;20123;-75
2022/03/20 03:42:52;;;;;;;17.23;7.55;;;;;;;13.43;25.63;101623.94;5092994;28;20016;-75
2022/03/20 03:45:18;;;;;;;10.13;6.95;;;;;;;13.43;25.67;101633.72;5091908;28;20028;-73
2022/03/20 03:47:44;;;;;;;10.23;6.28;;;;;;;13.49;25.44;101629.84;5102230;28;20058;-74
2022/03/20 03:50:10;;;;;;;10.70;7.10;;;;;;;13.49;25.79;101625.38;5098174;28;20022;-74
2022/03/20 03:52:37;;;;;;;9.38;6.35;;;;;;;13.49;25.67;101627.19;5090353;28;20017;-75
2022/03/20 03:55:04;;;;;;;9.05;6.38;;;;;;;13.49;26.02;101622.72;5090445;28;20027;-74
2022/03/20 03:57:29;;;;;;;11.70;6.30;;;;;;;13.42;25.68;101622.22;5098340;28;20016;-74
2022/03/20 03:59:55;;;;;;;15.02;7.65;;;;;;;13.48;25.88;101625.47;5101105;28;20117;-73
2022/03/20 04:02:21;;;;;;;9.98;6.80;;;;;;;13.45;26.12;101617.69;5104762;28;20054;-73
2022/03/20 04:04:47;;;;;;;10.25;6.65;;;;;;;13.42;25.66;101618.69;5110522;28;20031;-73
2022/03/20 04:07:17;;;;;;;9.40;6.63;;;;;;;13.30;26.32;101622.91;5110094;28;20011;-73
2022/03/20 04:09:44;;;;;;;13.55;7.10;;;;;;;13.21;26.44;101629.59;5110144;28;20042;-74
2022/03/20 04:12:10;;;;;;;15.80;8.20;;;;;;;13.23;26.18;101626.84;5092397;28;20043;-75
2022/03/20 04:14:35;;;;;;;11.43;7.35;;;;;;;13.26;26.09;101624.00;5110285;28;20300;-75
2022/03/20 04:17:03;;;;;;;10.52;6.88;;;;;;;13.23;26.40;101622.41;5108236;28;20015;-75
2022/03/20 04:19:29;;;;;;;10.40;7.00;;;;;;;13.24;26.38;101609.94;5110227;28;20016;-75
2022/03/20 04:21:55;;;;;;;12.20;7.22;;;;;;;13.29;26.56;101615.88;5110103;28;20084;-75
2022/03/20 04:24:20;;;;;;;12.88;8.25;;;;;;;13.36;26.14;101611.91;5092244;28;20065;-74
2022/03/20 04:26:46;;;;;;;12.88;8.18;;;;;;;13.41;25.97;101609.00;5109504;28;20062;-76
2022/03/20 04:29:12;;;;;;;14.25;9.30;;;;;;;13.45;26.10;101607.03;5109339;28;20152;-75
2022/03/20 04:31:37;;;;;;;15.23;9.10;;;;;;;13.48;26.17;101609.50;5108289;28;20236;-74
2022/03/20 04:34:04;;;;;;;14.15;9.07;;;;;;;13.48;26.25;101609.50;5109770;28;20024;-75
2022/03/20 04:36:30;;;;;;;15.43;9.48;;;;;;;13.53;26.49;101618.09;5109341;28;20016;-74
2022/03/20 04:38:59;;;;;;;14.57;9.65;;;;;;;13.48;26.36;101607.72;5109770;28;20007;-76
2022/03/20 04:41:25;;;;;;;17.20;10.52;;;;;;;13.51;26.46;101598.69;5109696;28;20008;-76
2022/03/20 04:43:51;;;;;;;16.77;10.60;;;;;;;13.54;26.34;101607.34;5109955;28;20094;-74
2022/03/20 04:46:20;;;;;;;17.40;9.20;;;;;;;13.55;26.49;101613.53;5109530;28;20012;-77
2022/03/20 04:59:44;;;;;;;14.85;9.43;;;;;;;13.76;26.15;101613.22;5109074;28;20014;-77
2022/03/20 05:02:10;;;;;;;14.32;9.05;;;;;;;13.85;26.51;101602.03;5109325;28;20036;-76
2022/03/20 05:04:37;;;;;;;12.38;9.23;;;;;;;13.95;26.54;101608.50;5107625;28;20016;-76
2022/03/20 05:07:03;;;;;;;11.95;8.18;;;;;;;14.04;26.58;101604.44;5108941;28;20008;-76
2022/03/20 05:14:58;;;;;;;12.45;8.02;;;;;;;14.14;26.68;101604.75;5109219;28;20018;-76
2022/03/20 05:17:24;;;;;;;10.55;7.40;;;;;;;14.19;26.61;101597.31;5108576;28;20164;-76
2022/03/20 05:19:49;;;;;;;12.13;7.03;;;;;;;14.24;26.52;101597.91;5107116;28;20020;-76
2022/03/20 05:22:14;;;;;;;11.07;6.72;;;;;;;14.23;26.59;101590.88;5108690;28;20080;-76
2022/03/20 05:24:40;;;;;;;14.25;7.65;;;;;;;14.30;26.55;101586.00;5108928;28;20156;-75
2022/03/20 05:27:07;;;;;;;10.35;7.22;;;;;;;14.39;26.28;101581.94;5107612;28;20008;-75
2022/03/20 05:29:33;;;;;;;10.80;7.22;;;;;;;14.55;26.52;101580.03;5108787;28;20047;-74
2022/03/20 05:32:03;;;;;;;12.70;7.63;;;;;;;14.58;26.44;101582.50;5108707;28;20084;-75
2022/03/20 05:34:29;;;;;;;10.60;6.90;;;;;;;14.55;26.53;101557.88;5107033;28;20040;-74
2022/03/20 05:36:57;;;;;;;9.05;6.47;;;;;;;14.40;26.82;101562.34;5107723;28;20136;-75
2022/03/20 05:39:23;;;;;;;13.25;6.88;;;;;;;14.35;27.04;101568.78;5090537;28;20014;-74
2022/03/20 05:41:49;;;;;;;11.07;6.50;;;;;;;14.35;27.08;101562.63;5108239;28;20035;-74
2022/03/20 05:44:16;;;;;;;10.30;6.80;;;;;;;14.34;27.12;101564.41;5108491;28;20141;-75
2022/03/20 05:46:46;;;;;;;9.80;5.82;;;;;;;14.32;27.28;101569.00;5108219;28;20015;-74
2022/03/20 05:49:12;;;;;;;9.63;6.47;;;;;;;14.24;27.51;101557.97;5108447;28;20008;-74
2022/03/20 05:51:37;;;;;;;13.18;6.97;;;;;;;14.24;27.48;101554.47;5106539;28;20016;-74
2022/03/20 05:54:04;;;;;;;10.80;6.35;;;;;;;14.18;27.81;101555.69;5108380;28;20125;-74
2022/03/20 05:59:13;;;;;;;10.15;6.53;;;;;;;14.12;27.71;101556.06;5108144;28;20038;-75
2022/03/20 06:01:39;;;;;;;11.75;6.57;;;;;;;14.02;28.27;101542.47;5107889;28;20129;-74
2022/03/20 06:04:06;;;;;;;7.05;5.30;;;;;;;14.10;27.93;101542.00;5103039;28;20012;-75
2022/03/20 06:06:32;;;;;;;10.18;6.25;;;;;;;14.13;28.35;101549.78;5106312;28;20016;-75
2022/03/20 06:08:57;;;;;;;8.70;6.00;;;;;;;14.10;28.04;101547.31;5103791;28;20038;-75
2022/03/20 06:11:23;;;;;;;8.45;5.45;;;;;;;14.09;28.42;101537.63;5092680;28;20044;-76
2022/03/20 06:13:48;;;;;;;10.38;6.28;;;;;;;14.07;28.34;101528.84;5108104;28;20027;-74
2022/03/20 06:16:15;;;;;;;12.50;5.05;;;;;;;14.07;28.26;101528.84;5107943;28;20016;-76
2022/03/20 06:18:42;;;;;;;6.82;5.60;;;;;;;14.14;28.47;101533.72;5108039;28;20012;-77
2022/03/20 06:21:11;;;;;;;9.80;5.82;;;;;;;14.18;28.40;101524.59;5107743;28;20012;-74
2022/03/20 06:23:37;;;;;;;7.40;5.47;;;;;;;14.27;28.40;101524.94;5087674;28;20012;-74
2022/03/20 06:26:03;;;;;;;9.15;6.13;;;;;;;14.32;28.19;101515.75;5089882;28;20016;-75
2022/03/20 06:28:29;;;;;;;9.32;5.72;;;;;;;14.36;28.16;101521.72;5107516;28;20080;-77
2022/03/20 06:30:54;;;;;;;7.95;4.95;;;;;;;14.42;28.46;101521.31;5107003;28;20019;-75
2022/03/20 06:33:20;;;;;;;12.95;5.15;;;;;;;14.50;28.25;101519.06;5107442;28;20039;-74
2022/03/20 06:35:46;;;;;;;7.85;5.22;;;;;;;14.53;28.10;101511.81;5107361;28;20121;-75
2022/03/20 06:38:12;;;;;;;8.60;5.60;;;;;;;14.56;28.08;101509.81;5089370;28;20012;-76
2022/03/20 06:40:38;;;;;;;8.68;5.35;;;;;;;14.60;28.05;101513.13;5107753;28;20050;-77
2022/03/20 06:43:04;;;;;;;9.48;5.55;;;;;;;14.64;28.03;101503.97;5106808;28;20057;-77
2022/03/20 06:45:29;;;;;;;7.90;4.47;;;;;;;14.65;28.13;101505.69;5107103;28;20023;-72
2022/03/20 06:47:55;;;;;;;10.25;5.20;;;;;;;14.64;28.09;101503.97;5107479;28;20012;-71
2022/03/20 06:50:21;;;;;;;10.23;4.47;;;;;;;14.65;28.13;101498.53;5107501;28;20031;-72
2022/03/20 06:52:46;;;;;;;11.73;5.38;;;;;;;14.65;28.05;101495.88;5107213;28;20012;-72
2022/03/20 06:55:13;;;;;;;8.15;5.10;;;;;;;14.69;28.09;101493.94;5107612;28;20020;-72
2022/03/20 06:57:41;;;;;;;8.80;4.80;;;;;;;14.69;28.02;101501.06;5107446;28;20012;-72
2022/03/20 07:00:08;;;;;;;7.63;4.88;;;;;;;14.65;27.99;101495.88;5107370;28;20012;-72
2022/03/20 07:02:34;;;;;;;8.93;5.20;;;;;;;14.67;28.36;101500.25;5106802;28;20107;-71
2022/03/20 07:05:01;;;;;;;8.50;5.25;;;;;;;14.65;28.17;101492.38;5106441;28;20020;-73
2022/03/20 07:07:27;;;;;;;8.40;5.47;;;;;;;14.68;28.16;101507.34;5100830;28;20095;-73
2022/03/20 07:09:53;;;;;;;7.53;4.82;;;;;;;14.64;28.06;101491.50;5107125;28;20024;-74
2022/03/20 07:12:19;;;;;;;8.20;5.80;;;;;;;14.63;28.31;101491.63;5107014;28;20238;-74
2022/03/20 07:14:45;;;;;;;8.23;5.50;;;;;;;14.58;28.19;101494.59;5107390;28;20024;-74
2022/03/20 07:17:21;;;;;;;9.63;5.45;;;;;;;14.61;28.42;101486.41;5106904;28;20020;-74
2022/03/20 07:19:47;;;;;;;11.38;5.38;;;;;;;14.62;28.54;101497.91;5107335;28;20091;-74
2022/03/20 07:22:14;;;;;;;6.97;4.93;;;;;;;14.65;28.36;101493.22;5107223;28;20080;-72
2022/03/20 07:24:41;;;;;;;8.45;5.25;;;;;;;14.70;28.24;101481.44;5107179;28;20081;-73
2022/03/20 07:30:04;;;;;;;8.10;5.22;;;;;;;14.95;27.79;101470.88;5022853;28;20030;-74
2022/03/20 07:32:29;;;;;;;9.63;4.28;;;;;;;15.12;27.58;101462.72;5086816;28;20032;-73
2022/03/20 07:34:55;;;;;;;10.13;4.55;;;;;;;15.24;27.39;101470.72;5086886;28;20036;-73
2022/03/20 07:37:21;;;;;;;9.30;4.95;;;;;;;15.35;27.34;101466.50;5096225;28;20024;-73
2022/03/20 07:39:48;;;;;;;7.15;4.80;;;;;;;15.44;27.31;101463.19;5107000;28;20020;-74
2022/03/20 07:42:15;;;;;;;5.20;4.28;;;;;;;15.51;27.30;101460.97;5107090;28;20027;-73
2022/03/20 07:44:41;;;;;;;9.10;5.43;;;;;;;15.56;27.19;101469.50;5107173;28;20020;-73
2022/03/20 07:47:08;;;;;;;7.53;4.80;;;;;;;15.61;27.22;101463.84;5106945;28;20096;-72
2022/03/20 07:49:37;;;;;;;12.27;4.60;;;;;;;15.67;27.19;101455.41;5107018;28;20182;-73
2022/03/20 07:52:05;;;;;;;6.43;4.90;;;;;;;15.74;27.34;101451.34;5109514;28;20023;-74
2022/03/20 07:54:31;;;;;;;9.70;5.07;;;;;;;15.77;27.54;101451.16;5110702;28;20145;-74
2022/03/20 07:56:57;;;;;;;6.45;4.47;;;;;;;15.83;27.04;101440.03;5110635;28;20027;-72
2022/03/20 07:59:22;;;;;;;6.45;4.75;;;;;;;15.89;27.19;101451.28;5110466;28;20035;-73
2022/03/20 08:01:49;;;;;;;7.25;4.55;;;;;;;15.95;27.03;101458.84;5109887;28;20020;-75
2022/03/20 08:04:14;;;;;;;6.60;4.55;;;;;;;15.99;27.28;101445.19;5110366;28;20081;-76
2022/03/20 08:06:40;;;;;;;5.93;4.50;;;;;;;16.05;27.03;101440.34;5110331;28;20165;-72
2022/03/20 08:09:05;;;;;;;6.95;4.35;;;;;;;16.10;27.11;101444.38;5077453;28;20024;-72
2022/03/20 08:11:31;;;;;;;9.15;4.47;;;;;;;16.14;26.87;101435.19;5090571;28;20025;-74
2022/03/20 08:13:58;;;;;;;6.45;3.60;;;;;;;16.16;27.02;101430.59;5109989;28;20090;-75
2022/03/20 08:16:26;;;;;;;8.63;4.00;;;;;;;16.22;26.86;101431.13;5092009;28;20027;-74
2022/03/20 08:18:55;;;;;;;6.22;3.88;;;;;;;16.25;27.06;101425.56;5110174;28;20027;-74
2022/03/20 08:21:20;;;;;;;5.03;3.55;;;;;;;16.27;27.21;101411.13;5110328;28;20121;-73
2022/03/20 08:23:46;;;;;;;8.55;3.55;;;;;;;16.32;26.92;101411.63;5109817;28;20038;-74
2022/03/20 08:26:12;;;;;;;5.30;3.55;;;;;;;16.37;26.86;101399.75;5109495;28;20027;-72
2022/03/20 08:28:42;;;;;;;6.22;3.88;;;;;;;16.41;27.03;101402.09;5109826;28;20059;-73
2022/03/20 08:31:11;;;;;;;8.48;3.50;;;;;;;16.44;26.84;101396.53;5109826;28;20079;-73
2022/03/20 08:33:36;;;;;;;6.35;3.45;;;;;;;16.48;26.52;101387.31;5109824;28;20047;-77
2022/03/20 08:36:04;;;;;;;5.60;3.30;;;;;;;16.51;26.71;101380.88;5109322;28;20193;-72
2022/03/20 08:38:30;;;;;;;5.07;3.30;;;;;;;16.53;26.66;101380.78;5109304;28;20186;-72
2022/03/20 08:40:56;;;;;;;7.05;3.70;;;;;;;16.56;26.50;101381.41;5109557;28;20019;-71
2022/03/20 08:43:22;;;;;;;5.97;3.42;;;;;;;16.59;26.73;101374.97;5109655;28;20192;-71
2022/03/20 08:45:49;;;;;;;4.20;3.25;;;;;;;16.63;26.30;101376.44;5109246;28;20027;-70
2022/03/20 08:48:14;;;;;;;4.28;3.13;;;;;;;16.67;26.33;101375.25;5109296;28;20046;-73
2022/03/20 08:50:44;;;;;;;4.75;3.13;;;;;;;16.70;26.17;101369.66;5108995;28;20024;-73
2022/03/20 08:53:10;;;;;;;5.82;3.60;;;;;;;16.70;26.35;101358.13;5109460;28;20023;-72
2022/03/20 08:55:36;;;;;;;5.97;3.05;;;;;;;16.78;26.50;101369.09;5109484;28;20024;-73
2022/03/20 08:58:04;;;;;;;6.07;2.83;;;;;;;16.81;26.41;101365.34;5109124;28;20019;-72
2022/03/20 09:00:32;;;;;;;6.18;3.08;;;;;;;16.81;26.31;101363.50;5109189;28;20028;-72
2022/03/20 09:02:57;;;;;;;11.05;3.25;;;;;;;16.82;26.24;101364.38;5107834;28;20219;-71
2022/03/20 09:05:23;;;;;;;4.72;2.95;;;;;;;16.86;26.06;101358.69;5109093;28;20031;-72
2022/03/20 09:07:50;;;;;;;6.15;3.05;;;;;;;16.93;26.38;101359.06;5109145;28;20073;-73
2022/03/20 09:10:17;;;;;;;5.25;3.10;;;;;;;16.97;26.63;101362.38;5096348;28;20035;-72
2022/03/20 09:12:43;;;;;;;6.05;3.00;;;;;;;16.98;26.12;101351.56;5100918;28;20229;-75
2022/03/20 09:15:12;;;;;;;5.85;3.70;;;;;;;17.01;26.22;101348.63;5108965;28;20315;-75
2022/03/20 09:20:26;;;;;;;3.88;2.75;;;;;;;17.09;26.06;101356.06;5109000;28;20042;-73
2022/03/20 09:22:52;;;;;;;5.03;3.45;;;;;;;17.13;26.12;101352.19;5108578;28;20019;-71
2022/03/20 09:25:18;;;;;;;4.63;2.90;;;;;;;17.17;26.12;101342.97;5108885;28;20051;-72
2022/03/20 09:27:44;;;;;;;6.68;2.83;;;;;;;17.17;25.68;101328.72;5108865;28;20225;-72
2022/03/20 09:30:10;;;;;;;4.25;2.65;;;;;;;17.16;25.63;101329.69;5108961;28;20012;-74
2022/03/20 09:32:36;;;;;;;5.70;2.22;;;;;;;17.14;25.92;101332.50;5107910;28;20055;-73
2022/03/20 09:35:01;;;;;;;4.63;2.63;;;;;;;17.09;26.07;101326.66;5108229;28;20027;-72
2022/03/20 09:37:27;;;;;;;3.67;2.75;;;;;;;17.05;25.93;101318.03;5108520;28;20015;-73
2022/03/20 09:39:52;;;;;;;7.90;2.95;;;;;;;16.98;25.68;101314.13;5108442;28;20027;-74
2022/03/20 09:42:19;;;;;;;3.97;2.47;;;;;;;16.98;25.87;101311.47;5108343;28;20224;-71
2022/03/20 09:44:45;;;;;;;4.72;2.70;;;;;;;16.99;25.55;101312.31;5108254;28;20170;-74
2022/03/20 09:47:17;;;;;;;4.00;2.65;;;;;;;17.06;26.00;101300.13;5108175;28;20027;-72
2022/03/20 09:49:46;;;;;;;4.95;2.45;;;;;;;17.06;25.81;101298.34;5108377;28;20020;-71
2022/03/20 09:52:12;;;;;;;5.72;2.40;;;;;;;17.10;25.52;101296.25;5108235;28;20030;-74
2022/03/20 09:54:37;;;;;;;5.72;2.00;;;;;;;17.14;25.57;101292.38;5108350;28;20028;-72
2022/03/20 09:57:04;;;;;;;4.68;2.25;;;;;;;17.20;25.69;101285.69;5107962;28;20020;-74
2022/03/20 09:59:31;;;;;;;3.60;2.08;;;;;;;17.23;25.34;101277.44;5108104;28;20016;-74
2022/03/20 10:02:02;;;;;;;3.45;2.17;;;;;;;17.23;25.52;101266.72;5108457;28;20148;-74
2022/03/20 10:04:28;;;;;;;4.38;1.88;;;;;;;17.20;25.30;101265.16;5108239;28;20051;-72
2022/03/20 10:06:54;;;;;;;4.80;2.15;;;;;;;17.22;25.55;101265.88;5107876;28;20110;-75
2022/03/20 10:09:21;;;;;;;5.13;2.08;;;;;;;17.26;25.31;101261.16;5108029;28;20035;-71
2022/03/20 10:11:49;;;;;;;4.03;2.20;;;;;;;17.30;25.31;101259.06;5100393;28;20206;-72
2022/03/20 10:14:23;;;;;;;3.97;1.90;;;;;;;17.34;24.83;101255.19;5087498;28;20031;-73
2022/03/20 10:17:08;;;;;;;2.65;1.80;;;;;;;17.35;24.95;101244.34;5090205;28;20031;-72
2022/03/20 10:19:35;;;;;;;3.53;2.05;;;;;;;17.36;24.82;101238.03;5107909;28;20027;-73
2022/03/20 10:22:14;;;;;;;5.88;2.65;;;;;;;17.41;25.01;101243.00;5107450;28;20008;-72
2022/03/20 10:24:47;;;;;;;3.53;2.47;;;;;;;17.42;24.69;101238.50;5107468;28;20019;-72
2022/03/20 10:27:14;;;;;;;3.50;2.05;;;;;;;17.46;24.82;101247.97;5107757;28;20023;-72
2022/03/20 10:29:53;;;;;;;4.70;2.17;;;;;;;17.48;24.59;101232.66;5107503;28;20039;-73
2022/03/20 10:32:20;;;;;;;3.38;2.40;;;;;;;17.52;24.67;101231.44;5099474;28;20136;-72
2022/03/20 10:35:00;;;;;;;5.53;1.90;;;;;;;17.54;24.75;101224.13;5087791;28;20215;-72
2022/03/20 10:37:50;;;;;;;4.85;2.00;;;;;;;17.63;24.23;101228.72;5089924;28;20025;-75
2022/03/20 10:40:21;;;;;;;2.45;1.63;;;;;;;17.64;24.56;101219.72;5106077;28;20038;-73
2022/03/20 10:43:07;;;;;;;4.60;1.67;;;;;;;17.69;24.66;101206.81;5106127;28;20007;-75
2022/03/20 10:46:00;;;;;;;2.92;1.25;;;;;;;17.75;24.34;101197.44;5096259;28;20028;-75
2022/03/20 10:48:44;;;;;;;2.65;1.40;;;;;;;17.80;24.01;101202.38;5106097;28;20020;-73
2022/03/20 10:51:10;;;;;;;4.13;1.70;;;;;;;17.83;24.24;101189.59;5073845;28;20080;-74
2022/03/20 10:53:54;;;;;;;4.25;1.40;;;;;;;17.87;24.09;101179.47;5096094;28;20023;-76
2022/03/20 10:56:20;;;;;;;2.50;1.40;;;;;;;17.88;23.93;101180.34;5090463;28;20070;-77
2022/03/20 10:58:45;;;;;;;24.15;3.05;;;;;;;17.89;24.12;101182.88;5092404;28;20288;-73
2022/03/20 11:01:12;;;;;;;6.63;1.30;;;;;;;17.95;24.54;101168.97;5097565;28;20008;-76
2022/03/20 11:03:39;;;;;;;9.13;1.25;;;;;;;18.05;24.04;101160.19;5094309;28;20020;-71
2022/03/20 11:06:10;;;;;;;2.97;1.20;;;;;;;18.14;24.11;101167.47;5103063;28;20016;-72
2022/03/20 11:08:38;;;;;;;5.22;1.63;;;;;;;18.21;24.21;101165.13;5096414;28;20043;-70
2022/03/20 11:11:06;;;;;;;5.97;1.60;;;;;;;18.29;24.63;101157.25;5090633;28;20017;-72
2022/03/20 11:13:35;;;;;;;2.97;1.20;;;;;;;18.26;23.47;101153.03;5089332;28;20082;-71
2022/03/20 11:16:04;;;;;;;4.35;1.60;;;;;;;18.14;23.87;101148.72;5102086;28;20020;-72
2022/03/20 11:18:32;;;;;;;3.55;1.30;;;;;;;18.17;24.57;101132.34;5090618;28;20090;-71
2022/03/20 11:21:00;;;;;;;3.63;1.42;;;;;;;18.30;24.71;101141.06;5090517;28;20144;-71
2022/03/20 11:23:27;;;;;;;6.35;1.30;;;;;;;18.41;24.50;101139.28;5088645;28;20225;-71
2022/03/20 11:25:53;;;;;;;5.35;1.52;;;;;;;18.47;24.62;101138.72;5074087;28;20100;-71
2022/03/20 11:28:22;;;;;;;3.92;1.73;;;;;;;18.55;24.44;101144.28;5107762;28;20036;-73
2022/03/20 11:30:48;;;;;;;3.35;1.40;;;;;;;18.60;24.21;101142.03;5091498;28;20187;-70
2022/03/20 11:33:14;;;;;;;5.45;1.63;;;;;;;18.65;24.35;101147.03;5094517;28;20059;-76
2022/03/20 11:35:41;;;;;;;4.18;1.30;;;;;;;18.66;24.57;101146.03;5097179;28;20148;-73
2022/03/20 11:38:17;;;;;;;3.67;1.75;;;;;;;18.67;24.34;101130.78;5090451;28;20024;-74
2022/03/20 11:41:06;;;;;;;3.50;1.20;;;;;;;18.72;24.38;101147.31;5090442;28;20028;-73
2022/03/20 11:43:32;;;;;;;8.35;1.33;;;;;;;18.71;24.35;101143.78;5090326;28;20065;-74
2022/03/20 11:46:21;;;;;;;5.85;1.35;;;;;;;18.73;24.48;101146.34;5100931;28;20213;-75
2022/03/20 11:49:17;;;;;;;6.90;1.30;;;;;;;18.79;24.10;101137.75;5093952;28;20016;-72
2022/03/20 11:52:07;;;;;;;2.38;1.33;;;;;;;18.78;24.02;101132.53;5104743;28;20016;-72
2022/03/20 11:54:42;;;;;;;5.80;1.33;;;;;;;18.81;23.70;101133.09;5110125;28;20012;-70
2022/03/20 11:57:32;;;;;;;6.28;1.45;;;;;;;18.85;24.08;101133.66;5106848;28;20161;-73